Weather History for KTSP - December, 2012

Change the Weather History Date:

Sunday, December 2, 2012

  Actual Average Record
Temperature  
Mean Temperature 50 °F -  
Max Temperature 55 °F 54 °F - (-1)
Min Temperature 46 °F 32 °F - (-1)
Degree Days  
Heating Degree Days 14    
Moisture  
Dew Point 48 °F    
Average Humidity 92    
Maximum Humidity 100    
Minimum Humidity 77    
Precipitation  
Precipitation 0.11 in - - ()
Sea Level Pressure  
Sea Level Pressure 30.08 in    
Wind  
Wind Speed 12 mph (NW)    
Max Wind Speed 22 mph    
Max Gust Speed 30 mph    
Visibility 8 miles    
Events Rain    
Averages and records for this station are not official NWS values.
T = Trace of Precipitation, MM = Missing Value Source: NWS Daily Summary

Daily Weather History Graph

Daily Weather History Graph

Search for Another Location

Airport or City:

Trip Planner

Search our weather history database for the weather conditions in past years. The results will help you decide how hot, cold, wet, or windy it might be!

Date:

Astronomy

Dec. 02, 2012 Rise Set
Actual Time 6:45 AM PST 4:41 PM PST
Civil Twilight 6:17 AM PST 5:09 PM PST
Nautical Twilight 5:45 AM PST 5:40 PM PST
Astronomical Twilight 5:15 AM PST 6:11 PM PST
Moon 8:29 PM PST (12/2) 9:40 AM PST (12/2)
Length of Visible Light 10h 52m
Length of Day
9h 56m
Waning Gibbous, 85% of the Moon is Illuminated
Dec 2
Waning Gibbous
Dec 6
Last Quarter
Dec 13
New
Dec 19
First Quarter
Dec 28
Full

Hourly Weather History & Observations

Time (PST) Temp. Windchill Dew Point Humidity Pressure Visibility Wind Dir Wind Speed Gust Speed Precip Events Conditions
12:15 AM 46.4 °F 41.9 °F 46.4 °F 100% 30.12 in 10.0 mi NW 9.2 mph - N/A   Mostly Cloudy
12:35 AM 46.4 °F 41.9 °F 46.4 °F 100% 30.11 in 10.0 mi WNW 9.2 mph - N/A   Mostly Cloudy
12:55 AM 46.4 °F 42.4 °F 46.4 °F 100% 30.11 in 10.0 mi WNW 8.1 mph - N/A   Mostly Cloudy
1:15 AM 46.4 °F 42.4 °F 46.4 °F 100% 30.11 in 10.0 mi West 8.1 mph - N/A   Mostly Cloudy
1:35 AM 48.2 °F - 44.6 °F 87% 30.11 in 10.0 mi NW 8.1 mph - N/A   Mostly Cloudy
1:55 AM 48.2 °F - 44.6 °F 87% 30.11 in 10.0 mi NW 10.4 mph - N/A   Overcast
2:15 AM 48.2 °F - 46.4 °F 93% 30.11 in 10.0 mi WNW 9.2 mph - N/A   Overcast
2:35 AM 48.2 °F - 44.6 °F 87% 30.12 in 10.0 mi West 9.2 mph - N/A   Overcast
2:55 AM 48.2 °F - 44.6 °F 87% 30.12 in 10.0 mi West 8.1 mph - N/A   Overcast
3:15 AM 48.2 °F - 46.4 °F 93% 30.11 in 10.0 mi WNW 6.9 mph - N/A   Overcast
3:35 AM 48.2 °F - 46.4 °F 93% 30.11 in 10.0 mi NW 6.9 mph - N/A   Overcast
3:55 AM 48.2 °F - 46.4 °F 93% 30.10 in 3.0 mi NW 5.8 mph - N/A   Overcast
4:15 AM 48.2 °F - 46.4 °F 93% 30.09 in 8.0 mi NW 5.8 mph - N/A   Overcast
4:35 AM 48.2 °F - 46.4 °F 93% 30.09 in 10.0 mi NW 5.8 mph - N/A   Overcast
5:15 AM 48.2 °F - 48.2 °F 100% 30.10 in 10.0 mi NNW 5.8 mph - N/A   Overcast
5:35 AM 50.0 °F - 48.2 °F 94% 30.09 in 10.0 mi NW 5.8 mph - N/A Rain Light Rain
5:55 AM 50.0 °F - 48.2 °F 94% 30.10 in 10.0 mi NW 8.1 mph - N/A   Overcast
6:15 AM 50.0 °F - 48.2 °F 94% 30.10 in 10.0 mi WNW 8.1 mph - N/A   Overcast
6:35 AM 48.2 °F - 46.4 °F 93% 30.10 in 10.0 mi NW 8.1 mph - N/A   Overcast
6:55 AM 48.2 °F - 48.2 °F 100% 30.10 in 10.0 mi NW 6.9 mph - N/A   Overcast
7:15 AM 50.0 °F - 48.2 °F 94% 30.10 in 10.0 mi West 6.9 mph - N/A   Overcast
7:35 AM 50.0 °F - 48.2 °F 94% 30.10 in 10.0 mi West 5.8 mph - N/A   Overcast
7:55 AM 51.8 °F - 48.2 °F 88% 30.10 in 10.0 mi West 8.1 mph - N/A   Overcast
8:15 AM 51.8 °F - 48.2 °F 88% 30.10 in 10.0 mi West 8.1 mph - N/A   Overcast
8:35 AM 53.6 °F - 48.2 °F 82% 30.10 in 10.0 mi West 11.5 mph - N/A   Overcast
8:55 AM 51.8 °F - 48.2 °F 88% 30.10 in 10.0 mi NW 15.0 mph 18.4 mph N/A   Overcast
9:15 AM 51.8 °F - 48.2 °F 88% 30.11 in 10.0 mi NW 11.5 mph - N/A   Overcast
9:35 AM 53.6 °F - 48.2 °F 82% 30.11 in 10.0 mi NW 17.3 mph 23.0 mph N/A   Overcast
9:55 AM 53.6 °F - 48.2 °F 82% 30.11 in 10.0 mi NW 15.0 mph 21.9 mph N/A   Overcast
10:15 AM 53.6 °F - 48.2 °F 82% 30.11 in 10.0 mi NW 17.3 mph 26.5 mph N/A   Overcast
10:35 AM 53.6 °F - 48.2 °F 82% 30.11 in 10.0 mi NW 17.3 mph 24.2 mph N/A   Overcast
10:55 AM 53.6 °F - 48.2 °F 82% 30.09 in 10.0 mi NW 16.1 mph 24.2 mph N/A   Overcast
11:15 AM 53.6 °F - 48.2 °F 82% 30.09 in 10.0 mi NW 17.3 mph 25.3 mph N/A   Overcast
11:35 AM 53.6 °F - 48.2 °F 82% 30.08 in 10.0 mi NW 18.4 mph 26.5 mph N/A   Overcast
11:55 AM 53.6 °F - 48.2 °F 82% 30.08 in 10.0 mi NW 17.3 mph 24.2 mph N/A   Overcast
12:15 PM 53.6 °F - 48.2 °F 82% 30.06 in 10.0 mi NW 16.1 mph 26.5 mph N/A   Overcast
12:35 PM 53.6 °F - 48.2 °F 82% 30.06 in 10.0 mi NW 18.4 mph 23.0 mph N/A   Overcast
12:55 PM 53.6 °F - 48.2 °F 82% 30.06 in 10.0 mi NW 17.3 mph - N/A   Overcast
1:15 PM 53.6 °F - 48.2 °F 82% 30.05 in 10.0 mi NW 17.3 mph 21.9 mph N/A   Overcast
1:35 PM 53.6 °F - 48.2 °F 82% 30.05 in 10.0 mi NW 17.3 mph 23.0 mph N/A   Overcast
1:55 PM 55.4 °F - 48.2 °F 77% 30.04 in 10.0 mi NW 20.7 mph 27.6 mph N/A   Overcast
2:15 PM 53.6 °F - 48.2 °F 82% 30.04 in 10.0 mi NW 20.7 mph 29.9 mph N/A   Overcast
2:55 PM 53.6 °F - 48.2 °F 82% 30.05 in 10.0 mi NW 18.4 mph 27.6 mph N/A   Overcast
3:15 PM 51.8 °F - 48.2 °F 88% 30.05 in 10.0 mi NW 20.7 mph 27.6 mph N/A Rain Light Rain
3:35 PM 50.0 °F - 48.2 °F 94% 30.06 in 5.0 mi NW 18.4 mph 27.6 mph N/A Rain Light Rain
4:15 PM 50.0 °F - 46.4 °F 87% 30.06 in 10.0 mi WNW 18.4 mph 26.5 mph N/A Rain Light Rain
4:35 PM 50.0 °F - 46.4 °F 87% 30.07 in 10.0 mi NW 17.3 mph 25.3 mph N/A   Mostly Cloudy
5:15 PM 48.2 °F - 46.4 °F 93% 30.05 in 10.0 mi NW 16.1 mph 20.7 mph N/A   Overcast
5:55 PM 48.2 °F - 46.4 °F 93% 30.05 in 3.0 mi WNW 17.3 mph 27.6 mph N/A Rain Light Rain
6:15 PM 48.2 °F - 46.4 °F 93% 30.06 in 3.0 mi NW 17.3 mph 26.5 mph N/A Rain Light Rain
6:35 PM 48.2 °F - 48.2 °F 100% 30.07 in 1.8 mi NW 15.0 mph - 0.01 in Rain Light Rain
6:55 PM 48.2 °F - 48.2 °F 100% 30.07 in 1.5 mi WNW 13.8 mph 25.3 mph 0.08 in Rain Rain
7:15 PM 48.2 °F - 48.2 °F 100% 30.06 in 2.5 mi West 11.5 mph - 0.02 in Rain Light Rain
7:35 PM 50.0 °F - 48.2 °F 94% 30.04 in 2.0 mi West 18.4 mph 25.3 mph 0.02 in Rain Light Rain
7:55 PM 50.0 °F - 50.0 °F 100% 30.04 in 2.5 mi West 21.9 mph 28.8 mph 0.03 in Rain Light Rain
8:15 PM 50.0 °F - 50.0 °F 100% 30.04 in 3.0 mi West 18.4 mph 27.6 mph N/A Rain Light Rain
8:35 PM 50.0 °F - 50.0 °F 100% 30.05 in 4.0 mi WNW 17.3 mph 21.9 mph N/A Rain Light Rain
8:55 PM 50.0 °F - 50.0 °F 100% 30.06 in 9.0 mi WNW 15.0 mph 24.2 mph N/A Rain Light Rain
9:15 PM 50.0 °F - 50.0 °F 100% 30.07 in 6.0 mi NW 18.4 mph 26.5 mph N/A Rain Light Rain
9:35 PM 50.0 °F - 50.0 °F 100% 30.07 in 2.0 mi NW 20.7 mph 26.5 mph N/A Rain Light Rain
9:55 PM 50.0 °F - 50.0 °F 100% 30.07 in 1.2 mi NW 18.4 mph 25.3 mph N/A Rain Light Rain
10:15 PM 50.0 °F - 50.0 °F 100% 30.08 in 4.0 mi NW 17.3 mph 23.0 mph N/A Rain Light Rain
10:35 PM 50.0 °F - 50.0 °F 100% 30.08 in 3.0 mi NW 18.4 mph 25.3 mph N/A Rain Light Rain
10:55 PM 50.0 °F - 50.0 °F 100% 30.09 in 4.0 mi NW 15.0 mph 25.3 mph N/A   Overcast
11:15 PM 50.0 °F - 50.0 °F 100% 30.08 in 3.0 mi NW 19.6 mph 23.0 mph N/A   Overcast
11:35 PM 50.0 °F - 50.0 °F 100% 30.08 in 1.5 mi NW 18.4 mph 24.2 mph N/A Rain Light Rain
11:55 PM 50.0 °F - 50.0 °F 100% 30.09 in 0.2 mi NW 17.3 mph 25.3 mph N/A Rain Light Rain